world map with DGT marked

DGT - Airport

This information may not be accurate or current and is not valid for navigation or flight planning. No warranty of fitness for any purpose is made or implied.

flag of Philippines

Donate via PayPal

Additional information is available on the NEW Great Circle Mapper

Location
City:  Dumaguete, Philippines
ICAO / IATA:RPVD / DGT

Details
Type:Airport (Aerodrome, Airfield)
Latitude:9°20'01"N (9.333714)
Longitude:123°18'02"E (123.300472)
Datum:WGS 1984
Elevation:15 ft (5 m)
Runways:1
Longest:6136 × 118 ft (1870 × 36 m)

Time
Timezone:UTC+8 (DST+10)
Local Time:

Weather
METAR:RPVD  131800Z 32004KT 9999 FEW015 26/24 Q1010 RMK A2983
TAF:RPVD  (expired)

Related Locations
Nearby:
Farthest:SNFJ: 12443 mi / 20025 km
Jacareacanga [Pousada Thaimaçu], PA, BR

Find:

   beyond  
but within

Other Information
Maps:
Sources:

  


 


Great Circle Mapper   Great Circle Mapper
Great Circle Mapper FAQ   Great Circle Mapper FAQ
  Karl's Home Page
KLS²   KLS² Home
   GC on Facebook
Airlines of the World   Airlines of the World
Donate via PayPal


Copyright © 2004-2018, Karl L. Swartz. All rights reserved.
All trademarks mentioned herein belong to their respective owners.

Please see credits for attribution and copyright information.

Karl Swartz <karl@kls2.com>
  Powered by FreeBSD
Valid HTML 4.01!
Labeled with ICRA
hCard Microformat
Geo Microformat